Time;durP1;ratioP1;P1;durP2;ratioP2;P2;SDS_P1;SDS_P2;PMS_P1;PMS_P2;Temp;Humidity;BMP_temperature;BMP_pressure;BME280_temperature;BME280_humidity;BME280_pressure;Samples;Min_cycle;Max_cycle;Signal;HPM_P1;HPM_P2
2023/06/25 00:01:34;;;;;;;7.50;5.82;;;;;;;;;;5076720;28;20421;-77
2023/06/25 00:04:00;;;;;;;6.90;5.40;;;;;;;;;;5079230;28;20028;-78
2023/06/25 00:06:26;;;;;;;6.88;5.50;;;;;;;;;;5055013;28;20028;-78
2023/06/25 00:08:52;;;;;;;7.05;4.93;;;;;;;;;;5067514;28;20051;-79
2023/06/25 00:11:18;;;;;;;7.45;5.40;;;;;;;;;;5065813;28;20607;-78
2023/06/25 00:13:44;;;;;;;7.40;5.20;;;;;;;;;;5079566;28;20089;-79
2023/06/25 00:16:11;;;;;;;8.43;5.45;;;;;;;;;;5078286;28;20481;-79
2023/06/25 00:18:37;;;;;;;9.30;5.43;;;;;;;;;;5078630;28;20078;-79
2023/06/25 00:21:05;;;;;;;6.97;5.72;;;;;;;;;;5065332;28;20055;-78
2023/06/25 00:23:31;;;;;;;6.97;5.43;;;;;;;;;;5083039;28;20060;-79
2023/06/25 00:25:57;;;;;;;7.35;5.50;;;;;;;;;;5066574;28;20028;-79
2023/06/25 00:28:23;;;;;;;8.73;5.82;;;;;;;;;;5065149;28;21443;-78
2023/06/25 00:30:49;;;;;;;5.78;5.18;;;;;;;;;;5066363;28;20070;-81
2023/06/25 00:33:16;;;;;;;6.03;5.00;;;;;;;;;;5063388;28;20040;-79
2023/06/25 00:35:51;;;;;;;7.35;5.50;;;;;;;;;;5069661;28;20017;-79
2023/06/25 00:38:17;;;;;;;8.05;5.53;;;;;;;;;;5071909;28;20481;-78
2023/06/25 00:40:44;;;;;;;7.95;6.88;;;;;;;;;;5066155;28;20427;-78
2023/06/25 00:43:10;;;;;;;7.00;5.35;;;;;;;;;;5066537;28;20028;-79
2023/06/25 00:45:36;;;;;;;9.13;5.28;;;;;;;;;;5067374;28;20047;-78
2023/06/25 00:48:02;;;;;;;9.88;6.53;;;;;;;;;;5065468;28;20039;-78
2023/06/25 00:50:29;;;;;;;7.50;5.82;;;;;;;;;;5066340;28;20029;-79
2023/06/25 00:52:57;;;;;;;6.82;5.38;;;;;;;;;;5064506;28;20025;-78
2023/06/25 00:55:23;;;;;;;8.35;5.43;;;;;;;;;;5066437;28;20032;-81
2023/06/25 00:57:52;;;;;;;7.25;5.78;;;;;;;;;;5081624;28;20078;-79
2023/06/25 01:00:19;;;;;;;8.40;5.72;;;;;;;;;;5067921;28;20024;-78
2023/06/25 01:02:48;;;;;;;6.78;5.53;;;;;;;;;;5064562;28;20485;-79
2023/06/25 01:05:25;;;;;;;8.40;5.75;;;;;;;;;;5064241;28;20025;-78
2023/06/25 01:07:53;;;;;;;6.90;5.20;;;;;;;;;;5076358;28;20029;-79
2023/06/25 01:10:19;;;;;;;8.13;5.55;;;;;;;;;;5062345;28;20089;-78
2023/06/25 01:12:46;;;;;;;9.48;5.85;;;;;;;;;;5060079;28;20034;-79
2023/06/25 01:15:12;;;;;;;10.50;5.78;;;;;;;;;;5067099;28;20079;-79
2023/06/25 01:17:41;;;;;;;7.40;6.00;;;;;;;;;;5071237;28;20031;-78
2023/06/25 01:20:11;;;;;;;9.70;5.28;;;;;;;;;;5077642;28;21444;-78
2023/06/25 01:22:39;;;;;;;11.45;6.43;;;;;;;;;;5064364;28;20541;-78
2023/06/25 01:25:05;;;;;;;7.57;5.88;;;;;;;;;;5061264;28;20508;-79
2023/06/25 01:27:33;;;;;;;7.68;5.70;;;;;;;;;;5063675;28;20051;-80
2023/06/25 01:30:00;;;;;;;7.10;5.57;;;;;;;;;;5066334;28;20041;-79
2023/06/25 01:32:26;;;;;;;7.82;5.82;;;;;;;;;;5064739;28;20098;-78
2023/06/25 01:34:52;;;;;;;7.43;5.43;;;;;;;;;;5078674;28;20033;-79
2023/06/25 01:37:18;;;;;;;6.90;5.35;;;;;;;;;;5066986;28;20111;-80
2023/06/25 01:39:49;;;;;;;9.38;6.47;;;;;;;;;;5081994;28;20032;-80
2023/06/25 01:42:15;;;;;;;6.82;5.18;;;;;;;;;;5061224;28;20491;-78
2023/06/25 01:44:41;;;;;;;8.43;5.57;;;;;;;;;;5059462;28;20021;-78
2023/06/25 01:47:08;;;;;;;7.03;5.13;;;;;;;;;;5081873;28;20078;-78
2023/06/25 01:49:34;;;;;;;7.97;5.60;;;;;;;;;;5064276;28;20029;-78
2023/06/25 01:52:01;;;;;;;11.90;6.22;;;;;;;;;;5063990;28;20090;-78
2023/06/25 01:54:28;;;;;;;11.73;6.28;;;;;;;;;;5066705;28;20035;-78
2023/06/25 01:56:55;;;;;;;8.40;5.45;;;;;;;;;;5080127;28;20028;-81
2023/06/25 01:59:21;;;;;;;8.80;5.32;;;;;;;;;;5058337;28;20481;-79
2023/06/25 02:01:47;;;;;;;8.48;5.85;;;;;;;;;;5063028;28;20058;-79
2023/06/25 02:04:13;;;;;;;7.80;5.45;;;;;;;;;;5065066;28;20396;-78
2023/06/25 02:06:39;;;;;;;10.05;6.10;;;;;;;;;;5061561;28;20033;-78
2023/06/25 02:09:07;;;;;;;8.05;5.75;;;;;;;;;;5078564;28;20029;-78
2023/06/25 02:11:33;;;;;;;7.50;5.57;;;;;;;;;;5064259;28;20032;-78
2023/06/25 02:13:59;;;;;;;10.98;6.43;;;;;;;;;;5065360;28;20098;-79
2023/06/25 02:16:25;;;;;;;11.68;6.70;;;;;;;;;;5061563;28;21540;-78
2023/06/25 02:18:53;;;;;;;7.07;5.68;;;;;;;;;;5066856;28;20081;-78
2023/06/25 02:21:19;;;;;;;6.95;5.30;;;;;;;;;;5065605;28;20029;-80
2023/06/25 02:23:45;;;;;;;7.25;5.80;;;;;;;;;;5077297;28;20131;-79
2023/06/25 02:26:11;;;;;;;10.48;7.07;;;;;;;;;;5058340;28;20048;-79
2023/06/25 02:28:38;;;;;;;7.40;5.60;;;;;;;;;;5063580;28;20040;-79
2023/06/25 02:31:04;;;;;;;6.28;4.95;;;;;;;;;;5065883;28;20056;-78
2023/06/25 02:33:30;;;;;;;9.50;6.22;;;;;;;;;;5074620;28;20156;-79
2023/06/25 02:35:56;;;;;;;7.80;6.13;;;;;;;;;;5060921;28;20024;-79
2023/06/25 02:38:22;;;;;;;7.97;4.85;;;;;;;;;;5066534;28;20385;-78
2023/06/25 02:40:48;;;;;;;8.93;4.80;;;;;;;;;;5078152;28;20029;-79
2023/06/25 02:43:14;;;;;;;8.77;5.45;;;;;;;;;;5066642;28;20037;-78
2023/06/25 02:45:40;;;;;;;10.05;6.00;;;;;;;;;;5062844;28;20024;-78
2023/06/25 02:48:07;;;;;;;9.35;5.22;;;;;;;;;;5064165;28;20024;-81
2023/06/25 02:50:33;;;;;;;9.05;5.45;;;;;;;;;;5080390;28;20029;-77
2023/06/25 02:53:00;;;;;;;6.47;5.00;;;;;;;;;;5069665;28;20029;-79
2023/06/25 02:55:29;;;;;;;6.70;4.38;;;;;;;;;;5079562;28;20032;-79
2023/06/25 02:57:56;;;;;;;6.65;4.93;;;;;;;;;;5068623;28;20028;-79
2023/06/25 03:00:22;;;;;;;6.78;4.93;;;;;;;;;;5068091;28;20872;-79
2023/06/25 03:02:49;;;;;;;6.85;5.13;;;;;;;;;;5082368;28;20392;-82
2023/06/25 03:05:15;;;;;;;14.13;5.82;;;;;;;;;;5066010;28;20072;-78
2023/06/25 03:07:51;;;;;;;7.72;4.47;;;;;;;;;;5080277;28;20431;-79
2023/06/25 03:10:17;;;;;;;8.43;5.22;;;;;;;;;;5084511;28;20119;-79
2023/06/25 03:12:43;;;;;;;6.38;4.65;;;;;;;;;;5066658;28;20025;-79
2023/06/25 03:15:09;;;;;;;7.30;4.93;;;;;;;;;;5084817;28;20523;-78
2023/06/25 03:17:36;;;;;;;8.02;4.85;;;;;;;;;;5069419;28;20029;-79
2023/06/25 03:20:03;;;;;;;8.13;4.43;;;;;;;;;;5074336;28;20450;-80
2023/06/25 03:22:29;;;;;;;5.97;4.65;;;;;;;;;;5082886;28;20490;-78
2023/06/25 03:24:55;;;;;;;5.90;4.75;;;;;;;;;;5070270;28;20512;-80
2023/06/25 03:27:22;;;;;;;7.05;4.72;;;;;;;;;;5080222;28;20496;-78
2023/06/25 03:29:48;;;;;;;9.45;5.18;;;;;;;;;;5051452;28;20163;-78
2023/06/25 03:32:14;;;;;;;8.48;4.97;;;;;;;;;;5071690;28;20041;-78
2023/06/25 03:34:40;;;;;;;6.03;4.95;;;;;;;;;;5069420;28;20893;-78
2023/06/25 03:37:06;;;;;;;10.20;5.38;;;;;;;;;;5062277;28;20039;-79
2023/06/25 03:39:32;;;;;;;8.40;5.57;;;;;;;;;;5068396;28;20038;-78
2023/06/25 03:41:59;;;;;;;6.88;4.90;;;;;;;;;;5080721;28;20070;-79
2023/06/25 03:44:25;;;;;;;11.82;5.30;;;;;;;;;;5082770;28;21155;-78
2023/06/25 03:46:51;;;;;;;9.20;5.10;;;;;;;;;;5065762;28;20033;-78
2023/06/25 03:49:17;;;;;;;7.10;5.32;;;;;;;;;;5067508;28;20020;-78
2023/06/25 03:51:43;;;;;;;7.18;4.68;;;;;;;;;;5081118;28;20384;-79
2023/06/25 03:54:09;;;;;;;7.43;4.68;;;;;;;;;;5063975;28;20043;-78
2023/06/25 03:56:35;;;;;;;8.15;5.53;;;;;;;;;;5068221;28;20025;-78
2023/06/25 03:59:01;;;;;;;8.80;5.05;;;;;;;;;;5064719;28;20046;-78
2023/06/25 04:01:27;;;;;;;6.68;4.55;;;;;;;;;;5080976;28;20024;-78
2023/06/25 04:03:53;;;;;;;10.35;5.25;;;;;;;;;;5069718;28;20456;-78
2023/06/25 04:06:20;;;;;;;7.28;4.75;;;;;;;;;;5083274;28;20028;-79
2023/06/25 04:08:46;;;;;;;9.90;4.80;;;;;;;;;;5067735;28;20380;-81
2023/06/25 04:11:12;;;;;;;8.65;4.85;;;;;;;;;;5064045;28;20020;-78
2023/06/25 04:13:38;;;;;;;7.65;4.55;;;;;;;;;;5064965;28;20765;-78
2023/06/25 04:16:06;;;;;;;9.80;5.78;;;;;;;;;;5068176;28;20028;-79
2023/06/25 04:18:33;;;;;;;9.13;5.45;;;;;;;;;;5065466;28;20108;-78
2023/06/25 04:20:59;;;;;;;8.30;5.70;;;;;;;;;;5080198;28;20040;-79
2023/06/25 04:23:25;;;;;;;12.02;5.20;;;;;;;;;;5065612;28;20029;-80
2023/06/25 04:25:52;;;;;;;9.38;5.63;;;;;;;;;;5066849;28;20111;-78
2023/06/25 04:28:18;;;;;;;12.32;5.25;;;;;;;;;;5066826;28;20119;-78
2023/06/25 04:30:44;;;;;;;6.22;4.60;;;;;;;;;;5067110;28;20102;-81
2023/06/25 04:33:10;;;;;;;9.05;5.07;;;;;;;;;;5069499;28;20569;-78
2023/06/25 04:35:36;;;;;;;8.98;5.18;;;;;;;;;;5066237;28;20020;-78
2023/06/25 04:38:04;;;;;;;8.23;5.03;;;;;;;;;;5066752;28;20652;-78
2023/06/25 04:40:31;;;;;;;7.75;5.25;;;;;;;;;;5081928;28;20384;-79
2023/06/25 04:42:57;;;;;;;11.10;5.05;;;;;;;;;;5061938;28;20043;-79
2023/06/25 04:45:23;;;;;;;8.68;5.32;;;;;;;;;;5065491;28;20155;-78
2023/06/25 04:47:49;;;;;;;9.27;5.38;;;;;;;;;;5068803;28;20024;-81
2023/06/25 04:50:15;;;;;;;9.60;5.75;;;;;;;;;;5067357;28;20067;-79
2023/06/25 04:52:41;;;;;;;6.53;4.70;;;;;;;;;;5080593;28;20060;-78
2023/06/25 04:55:07;;;;;;;8.75;5.50;;;;;;;;;;5062492;28;20206;-79
2023/06/25 04:57:34;;;;;;;7.28;4.65;;;;;;;;;;5077423;28;20028;-78
2023/06/25 05:00:00;;;;;;;8.50;5.22;;;;;;;;;;5066121;28;20028;-78
2023/06/25 05:02:26;;;;;;;10.27;4.95;;;;;;;;;;5057117;28;20029;-78
2023/06/25 05:04:52;;;;;;;8.65;5.15;;;;;;;;;;5067197;28;20033;-78
2023/06/25 05:07:18;;;;;;;9.30;4.57;;;;;;;;;;5077915;28;20063;-79
2023/06/25 05:09:44;;;;;;;10.57;5.40;;;;;;;;;;5063327;28;20039;-78
2023/06/25 05:12:10;;;;;;;8.70;5.50;;;;;;;;;;5066420;28;20035;-77
2023/06/25 05:14:37;;;;;;;7.63;5.68;;;;;;;;;;5068245;28;20480;-79
2023/06/25 05:17:06;;;;;;;7.80;5.07;;;;;;;;;;5060923;28;20076;-80
2023/06/25 05:19:32;;;;;;;10.07;5.35;;;;;;;;;;5062492;28;20081;-79
2023/06/25 05:21:58;;;;;;;9.35;5.82;;;;;;;;;;5064076;28;20522;-80
2023/06/25 05:24:26;;;;;;;10.63;6.38;;;;;;;;;;5066502;28;20013;-81
2023/06/25 05:26:52;;;;;;;8.50;5.90;;;;;;;;;;5081491;28;20029;-80
2023/06/25 05:29:18;;;;;;;8.43;6.40;;;;;;;;;;5064078;28;20024;-78
2023/06/25 05:31:44;;;;;;;9.88;6.07;;;;;;;;;;5080880;28;20047;-77
2023/06/25 05:34:10;;;;;;;12.23;5.70;;;;;;;;;;5080203;28;20039;-79
2023/06/25 05:36:36;;;;;;;13.73;7.30;;;;;;;;;;5075335;28;20037;-80
2023/06/25 05:39:02;;;;;;;7.25;5.35;;;;;;;;;;5081057;28;20037;-79
2023/06/25 05:41:29;;;;;;;10.35;6.18;;;;;;;;;;5065522;28;20037;-79
2023/06/25 05:43:55;;;;;;;9.82;7.75;;;;;;;;;;5067453;28;20020;-78
2023/06/25 05:46:21;;;;;;;10.52;6.88;;;;;;;;;;5068451;28;20140;-79
2023/06/25 05:48:47;;;;;;;12.43;7.00;;;;;;;;;;5060357;28;20071;-80
2023/06/25 05:51:14;;;;;;;10.50;6.50;;;;;;;;;;5080476;28;20028;-82
2023/06/25 05:53:41;;;;;;;10.63;7.22;;;;;;;;;;5077176;28;20029;-78
2023/06/25 05:56:07;;;;;;;11.38;6.88;;;;;;;;;;5074627;28;20087;-78
2023/06/25 05:58:34;;;;;;;14.23;7.30;;;;;;;;;;5082065;28;20028;-78
2023/06/25 06:01:00;;;;;;;8.35;5.78;;;;;;;;;;5064062;28;20446;-76
2023/06/25 06:03:26;;;;;;;9.18;6.00;;;;;;;;;;5060015;28;20117;-78
2023/06/25 06:05:53;;;;;;;8.45;5.68;;;;;;;;;;5080915;28;20036;-80
2023/06/25 06:08:25;;;;;;;12.43;6.32;;;;;;;;;;5075994;28;20041;-85
2023/06/25 06:10:51;;;;;;;11.13;6.15;;;;;;;;;;5078145;28;20032;-78
2023/06/25 06:13:17;;;;;;;10.82;5.90;;;;;;;;;;5059737;28;20060;-77
2023/06/25 06:15:43;;;;;;;9.82;6.45;;;;;;;;;;5064447;28;20028;-78
2023/06/25 06:18:09;;;;;;;7.80;5.30;;;;;;;;;;5057092;28;20033;-78
2023/06/25 06:20:36;;;;;;;8.57;5.43;;;;;;;;;;5064166;28;20058;-76
2023/06/25 06:23:03;;;;;;;6.32;5.35;;;;;;;;;;5061224;28;20056;-81
2023/06/25 06:25:29;;;;;;;7.88;4.80;;;;;;;;;;5061328;28;20033;-78
2023/06/25 06:27:55;;;;;;;5.30;4.15;;;;;;;;;;5065646;28;20033;-77
2023/06/25 06:30:24;;;;;;;6.60;4.22;;;;;;;;;;5077398;28;20032;-78
2023/06/25 06:32:50;;;;;;;7.32;5.13;;;;;;;;;;5065515;28;20503;-78
2023/06/25 06:35:18;;;;;;;5.05;4.18;;;;;;;;;;5063460;28;20086;-77
2023/06/25 06:37:45;;;;;;;7.47;5.05;;;;;;;;;;5062431;28;20028;-77
2023/06/25 06:40:11;;;;;;;6.65;4.00;;;;;;;;;;5064942;28;20473;-76
2023/06/25 06:42:37;;;;;;;5.80;4.65;;;;;;;;;;5060893;28;20039;-76
2023/06/25 06:45:05;;;;;;;5.97;4.78;;;;;;;;;;5062090;28;20025;-82
2023/06/25 06:47:31;;;;;;;7.90;4.63;;;;;;;;;;5073989;28;20436;-75
2023/06/25 06:50:00;;;;;;;4.15;3.60;;;;;;;;;;5070529;28;20040;-78
2023/06/25 06:52:26;;;;;;;8.25;4.03;;;;;;;;;;5054385;28;20488;-76
2023/06/25 06:54:53;;;;;;;6.82;4.63;;;;;;;;;;5058766;28;20130;-77
2023/06/25 06:57:19;;;;;;;7.03;4.57;;;;;;;;;;5055821;28;20041;-76
2023/06/25 06:59:45;;;;;;;6.65;4.22;;;;;;;;;;5058636;28;20028;-77
2023/06/25 07:02:11;;;;;;;7.55;4.05;;;;;;;;;;5072624;28;20028;-76
2023/06/25 07:04:38;;;;;;;7.03;4.55;;;;;;;;;;5059180;28;20162;-76
2023/06/25 07:07:05;;;;;;;6.20;3.75;;;;;;;;;;5054561;28;20033;-75
2023/06/25 07:09:31;;;;;;;6.22;3.80;;;;;;;;;;5070183;28;20024;-75
2023/06/25 07:11:57;;;;;;;5.85;3.63;;;;;;;;;;5057343;28;20036;-76
2023/06/25 07:14:23;;;;;;;4.53;3.10;;;;;;;;;;5070837;28;20044;-75
2023/06/25 07:16:49;;;;;;;5.53;2.97;;;;;;;;;;5054567;28;20552;-76
2023/06/25 07:19:15;;;;;;;5.57;3.40;;;;;;;;;;5058059;28;20043;-76
2023/06/25 07:21:41;;;;;;;5.18;2.78;;;;;;;;;;5073277;28;20322;-77
2023/06/25 07:24:07;;;;;;;3.78;2.70;;;;;;;;;;5054937;28;20017;-76
2023/06/25 07:26:34;;;;;;;4.22;3.78;;;;;;;;;;5068715;28;20564;-78
2023/06/25 07:29:00;;;;;;;3.40;2.70;;;;;;;;;;5056558;28;20028;-76
2023/06/25 07:31:26;;;;;;;4.82;2.90;;;;;;;;;;5067331;28;20064;-76
2023/06/25 07:33:52;;;;;;;4.43;2.50;;;;;;;;;;5072535;28;20618;-76
2023/06/25 07:36:18;;;;;;;6.03;2.72;;;;;;;;;;5074561;28;20090;-76
2023/06/25 07:38:44;;;;;;;4.95;2.55;;;;;;;;;;5062053;28;20610;-77
2023/06/25 07:41:11;;;;;;;6.13;2.63;;;;;;;;;;5055236;28;20577;-76
2023/06/25 07:43:37;;;;;;;4.38;3.13;;;;;;;;;;5059633;28;20643;-77
2023/06/25 07:46:03;;;;;;;3.92;2.60;;;;;;;;;;5054817;28;20036;-76
2023/06/25 07:48:29;;;;;;;3.63;2.83;;;;;;;;;;5069199;28;20103;-76
2023/06/25 07:50:56;;;;;;;6.15;3.15;;;;;;;;;;5069932;28;20036;-76
2023/06/25 07:53:22;;;;;;;4.47;2.72;;;;;;;;;;5056308;28;20038;-76
2023/06/25 07:55:49;;;;;;;4.68;2.80;;;;;;;;;;5070319;28;20887;-77
2023/06/25 07:58:16;;;;;;;8.25;2.83;;;;;;;;;;5061319;28;20497;-88
2023/06/25 08:00:42;;;;;;;4.30;2.78;;;;;;;;;;5075265;28;20624;-76
2023/06/25 08:03:08;;;;;;;3.80;2.70;;;;;;;;;;5059252;28;20145;-77
2023/06/25 08:05:34;;;;;;;5.55;2.58;;;;;;;;;;5060316;28;20123;-77
2023/06/25 08:08:00;;;;;;;5.05;2.60;;;;;;;;;;5075341;28;20575;-77
2023/06/25 08:10:27;;;;;;;4.35;2.85;;;;;;;;;;5076418;28;20092;-77
2023/06/25 08:12:54;;;;;;;3.97;3.25;;;;;;;;;;5073494;28;20078;-77
2023/06/25 08:15:20;;;;;;;5.80;3.10;;;;;;;;;;5060065;28;20059;-77
2023/06/25 08:17:50;;;;;;;5.53;2.50;;;;;;;;;;5074677;28;20033;-78
2023/06/25 08:20:16;;;;;;;3.72;2.45;;;;;;;;;;5055809;28;21857;-78
2023/06/25 08:22:42;;;;;;;6.47;3.05;;;;;;;;;;5069528;28;20033;-78
2023/06/25 08:25:18;;;;;;;3.20;2.28;;;;;;;;;;5061191;28;20112;-77
2023/06/25 08:27:44;;;;;;;2.63;2.05;;;;;;;;;;5056609;28;20538;-78
2023/06/25 08:30:11;;;;;;;4.55;2.70;;;;;;;;;;5071842;28;20028;-78
2023/06/25 08:32:37;;;;;;;3.22;2.30;;;;;;;;;;5073894;28;20072;-77
2023/06/25 08:35:03;;;;;;;4.95;3.03;;;;;;;;;;5074301;28;20119;-77
2023/06/25 08:37:29;;;;;;;2.72;2.35;;;;;;;;;;5058652;28;20053;-77
2023/06/25 08:39:56;;;;;;;6.57;2.95;;;;;;;;;;5062417;28;20020;-78
2023/06/25 08:42:22;;;;;;;2.88;2.22;;;;;;;;;;5062690;28;20098;-76
2023/06/25 08:44:48;;;;;;;3.97;2.67;;;;;;;;;;5056963;28;20040;-76
2023/06/25 08:47:18;;;;;;;3.20;2.60;;;;;;;;;;5063258;28;21022;-75
2023/06/25 08:49:46;;;;;;;3.40;2.20;;;;;;;;;;5056999;28;20055;-76
2023/06/25 08:52:12;;;;;;;4.10;2.42;;;;;;;;;;5060198;28;20029;-78
2023/06/25 08:54:39;;;;;;;4.07;2.78;;;;;;;;;;5062770;28;20040;-78
2023/06/25 08:57:05;;;;;;;3.70;2.60;;;;;;;;;;5059136;28;20099;-76
2023/06/25 08:59:31;;;;;;;3.95;2.63;;;;;;;;;;5059040;28;20029;-77
2023/06/25 09:01:57;;;;;;;4.82;2.50;;;;;;;;;;5075824;28;20393;-76
2023/06/25 09:04:24;;;;;;;3.35;2.40;;;;;;;;;;5070756;28;20094;-76
2023/06/25 09:06:50;;;;;;;5.45;2.40;;;;;;;;;;5063135;28;20206;-76
2023/06/25 09:09:16;;;;;;;5.28;2.58;;;;;;;;;;5057140;28;20028;-75
2023/06/25 09:11:42;;;;;;;3.50;2.85;;;;;;;;;;5071713;28;20033;-77
2023/06/25 09:14:09;;;;;;;3.38;2.47;;;;;;;;;;5070834;28;20063;-78
2023/06/25 09:16:45;;;;;;;4.50;3.08;;;;;;;;;;5075854;28;20492;-78
2023/06/25 09:19:18;;;;;;;5.18;2.78;;;;;;;;;;5059852;28;20044;-76
2023/06/25 09:21:44;;;;;;;5.88;2.75;;;;;;;;;;5056887;28;20035;-77
2023/06/25 09:24:12;;;;;;;3.10;2.60;;;;;;;;;;5058817;28;20041;-78
2023/06/25 09:26:48;;;;;;;3.42;2.65;;;;;;;;;;5072061;28;20777;-80
2023/06/25 09:29:15;;;;;;;2.97;2.42;;;;;;;;;;5072918;28;20032;-78
2023/06/25 09:31:43;;;;;;;4.00;2.25;;;;;;;;;;5055999;28;20481;-78
2023/06/25 09:34:09;;;;;;;3.88;2.42;;;;;;;;;;5059392;28;20819;-77
2023/06/25 09:36:35;;;;;;;4.18;2.70;;;;;;;;;;5065706;28;20039;-76
2023/06/25 09:39:03;;;;;;;3.55;2.25;;;;;;;;;;5075720;28;20115;-76
2023/06/25 09:41:29;;;;;;;4.15;3.03;;;;;;;;;;5059425;28;20518;-78
2023/06/25 09:43:56;;;;;;;2.47;2.17;;;;;;;;;;5058548;28;20425;-77
2023/06/25 09:46:23;;;;;;;4.70;2.30;;;;;;;;;;5056996;28;20032;-77
2023/06/25 09:48:51;;;;;;;3.72;2.22;;;;;;;;;;5071907;28;20418;-79
2023/06/25 09:51:20;;;;;;;2.67;2.35;;;;;;;;;;5055666;28;20036;-77
2023/06/25 09:53:48;;;;;;;2.25;2.00;;;;;;;;;;5058200;28;20051;-77
2023/06/25 09:56:14;;;;;;;3.25;2.30;;;;;;;;;;5057337;28;20732;-77
2023/06/25 09:58:41;;;;;;;3.70;2.33;;;;;;;;;;5070530;28;20473;-81
2023/06/25 10:01:08;;;;;;;3.00;2.40;;;;;;;;;;5058162;28;20504;-84
2023/06/25 10:03:35;;;;;;;3.22;2.00;;;;;;;;;;5075197;28;20028;-79
2023/06/25 10:06:02;;;;;;;2.88;1.90;;;;;;;;;;5069819;28;20143;-77
2023/06/25 10:08:28;;;;;;;2.00;1.75;;;;;;;;;;5057712;28;20101;-80
2023/06/25 10:10:58;;;;;;;4.38;1.88;;;;;;;;;;5070056;28;20032;-79
2023/06/25 10:13:24;;;;;;;2.17;1.80;;;;;;;;;;5073183;28;20128;-78
2023/06/25 10:15:57;;;;;;;3.10;1.90;;;;;;;;;;5074727;28;20641;-77
2023/06/25 10:18:24;;;;;;;3.38;1.92;;;;;;;;;;5056423;28;20027;-78
2023/06/25 10:20:50;;;;;;;2.75;2.00;;;;;;;;;;5074662;28;20029;-78
2023/06/25 10:23:24;;;;;;;4.40;1.80;;;;;;;;;;5059174;28;20029;-78
2023/06/25 10:25:53;;;;;;;2.77;1.87;;;;;;;;;;5053214;28;20029;-79
2023/06/25 10:28:19;;;;;;;3.28;2.08;;;;;;;;;;5053057;28;20028;-79
2023/06/25 10:30:51;;;;;;;2.22;1.80;;;;;;;;;;5057542;28;20040;-82
2023/06/25 10:33:18;;;;;;;3.30;1.77;;;;;;;;;;5059906;28;20140;-79
2023/06/25 10:35:49;;;;;;;3.40;2.00;;;;;;;;;;5059996;28;20039;-79
2023/06/25 10:38:16;;;;;;;3.58;1.95;;;;;;;;;;5059438;28;20082;-80
2023/06/25 10:40:42;;;;;;;2.67;2.13;;;;;;;;;;5059057;28;20418;-77
2023/06/25 10:43:09;;;;;;;3.75;1.83;;;;;;;;;;5061032;28;20377;-80
2023/06/25 10:45:35;;;;;;;2.15;1.83;;;;;;;;;;5075796;28;20036;-77
2023/06/25 10:48:08;;;;;;;2.47;1.80;;;;;;;;;;5071501;28;20044;-79
2023/06/25 10:50:35;;;;;;;4.55;2.58;;;;;;;;;;5072178;28;20563;-78
2023/06/25 10:53:02;;;;;;;5.65;2.65;;;;;;;;;;5074881;28;20029;-78
2023/06/25 10:55:28;;;;;;;2.72;2.30;;;;;;;;;;5074538;28;20031;-80
2023/06/25 10:57:55;;;;;;;4.38;2.10;;;;;;;;;;5054047;28;20032;-77
2023/06/25 11:00:25;;;;;;;6.10;2.28;;;;;;;;;;5054420;28;20029;-77
2023/06/25 11:02:52;;;;;;;2.45;2.03;;;;;;;;;;5054269;28;20044;-77
2023/06/25 11:05:19;;;;;;;2.97;2.30;;;;;;;;;;5071842;28;20032;-76
2023/06/25 11:07:45;;;;;;;2.25;1.90;;;;;;;;;;5070242;28;20032;-76
2023/06/25 11:10:13;;;;;;;3.75;2.00;;;;;;;;;;5075437;28;20063;-78
2023/06/25 11:12:39;;;;;;;2.38;2.17;;;;;;;;;;5073996;28;20924;-76
2023/06/25 11:15:06;;;;;;;3.65;2.03;;;;;;;;;;5059614;28;20687;-78
2023/06/25 11:17:32;;;;;;;3.17;2.55;;;;;;;;;;5061001;28;20051;-76
2023/06/25 11:19:58;;;;;;;4.15;3.05;;;;;;;;;;5063830;28;20501;-75
2023/06/25 11:22:26;;;;;;;2.97;1.98;;;;;;;;;;5062910;28;20025;-78
2023/06/25 11:24:52;;;;;;;3.63;2.20;;;;;;;;;;5062755;28;20025;-78
2023/06/25 11:27:24;;;;;;;6.28;1.98;;;;;;;;;;5075416;28;20063;-78
2023/06/25 11:29:50;;;;;;;4.60;2.10;;;;;;;;;;5073478;28;20029;-78
2023/06/25 11:32:21;;;;;;;3.72;1.90;;;;;;;;;;5061699;28;20079;-77
2023/06/25 11:34:47;;;;;;;2.60;1.90;;;;;;;;;;5064416;28;20074;-79
2023/06/25 11:37:14;;;;;;;2.10;1.80;;;;;;;;;;5075001;28;20089;-77
2023/06/25 11:39:49;;;;;;;2.85;1.70;;;;;;;;;;5072020;28;20111;-80
2023/06/25 11:42:16;;;;;;;4.55;2.00;;;;;;;;;;5078806;28;20035;-78
2023/06/25 11:44:43;;;;;;;3.22;1.90;;;;;;;;;;5059176;28;20047;-81
2023/06/25 11:47:10;;;;;;;3.05;1.80;;;;;;;;;;5063243;28;20029;-79
2023/06/25 11:49:37;;;;;;;1.85;1.70;;;;;;;;;;5076404;28;20116;-80
2023/06/25 11:52:03;;;;;;;2.00;1.60;;;;;;;;;;5061663;28;20025;-80
2023/06/25 11:54:30;;;;;;;3.85;1.70;;;;;;;;;;5060682;28;20036;-80
2023/06/25 11:56:56;;;;;;;2.20;1.95;;;;;;;;;;5075009;28;20027;-79
2023/06/25 11:59:22;;;;;;;4.38;2.92;;;;;;;;;;5060311;28;20064;-79
2023/06/25 12:01:49;;;;;;;2.17;1.88;;;;;;;;;;5061632;28;20020;-79
2023/06/25 12:04:15;;;;;;;5.25;2.08;;;;;;;;;;5063700;28;20052;-78
2023/06/25 12:06:41;;;;;;;3.47;1.90;;;;;;;;;;5058245;28;20378;-78
2023/06/25 12:09:07;;;;;;;4.47;1.85;;;;;;;;;;5064919;28;20040;-79
2023/06/25 12:11:34;;;;;;;1.77;1.65;;;;;;;;;;5060253;28;20024;-78
2023/06/25 12:14:00;;;;;;;3.72;2.20;;;;;;;;;;5076343;28;20033;-81
2023/06/25 12:16:26;;;;;;;2.30;1.80;;;;;;;;;;5077366;28;20036;-81
2023/06/25 12:18:52;;;;;;;2.00;1.80;;;;;;;;;;5061804;28;20032;-80
2023/06/25 12:21:18;;;;;;;3.00;2.03;;;;;;;;;;5063591;28;20031;-83
2023/06/25 12:23:45;;;;;;;2.85;1.90;;;;;;;;;;5078801;28;20126;-80
2023/06/25 12:26:11;;;;;;;2.13;1.85;;;;;;;;;;5078840;28;20119;-80
2023/06/25 12:28:37;;;;;;;2.50;1.80;;;;;;;;;;5078030;28;20044;-80
2023/06/25 12:31:03;;;;;;;2.50;2.30;;;;;;;;;;5062297;28;20028;-81
2023/06/25 12:33:29;;;;;;;2.83;1.77;;;;;;;;;;5064962;28;20042;-80
2023/06/25 12:35:55;;;;;;;5.53;2.00;;;;;;;;;;5061793;28;20075;-80
2023/06/25 12:38:22;;;;;;;3.45;1.67;;;;;;;;;;5078308;28;20032;-80
2023/06/25 12:40:48;;;;;;;3.80;1.80;;;;;;;;;;5062539;28;20053;-77
2023/06/25 12:43:15;;;;;;;2.80;2.13;;;;;;;;;;5071705;28;20028;-79
2023/06/25 12:45:41;;;;;;;3.53;2.15;;;;;;;;;;5060030;28;20020;-77
2023/06/25 12:48:07;;;;;;;2.50;2.22;;;;;;;;;;5057900;28;20028;-77
2023/06/25 12:50:33;;;;;;;2.58;2.13;;;;;;;;;;5060923;28;20481;-77
2023/06/25 12:52:59;;;;;;;3.92;1.80;;;;;;;;;;5078721;28;20546;-77
2023/06/25 12:55:26;;;;;;;3.83;2.30;;;;;;;;;;5073815;28;20028;-78
2023/06/25 12:57:52;;;;;;;2.80;1.60;;;;;;;;;;5076899;28;20384;-78
2023/06/25 13:00:18;;;;;;;1.90;1.80;;;;;;;;;;5069772;28;20051;-78
2023/06/25 13:02:44;;;;;;;4.45;2.08;;;;;;;;;;5075663;28;20029;-77
2023/06/25 13:05:10;;;;;;;2.92;2.35;;;;;;;;;;5074839;28;20642;-77
2023/06/25 13:07:37;;;;;;;3.13;1.90;;;;;;;;;;5074764;28;20035;-77
2023/06/25 13:10:03;;;;;;;1.75;1.65;;;;;;;;;;5063557;28;20028;-77
2023/06/25 13:12:29;;;;;;;5.95;1.77;;;;;;;;;;5065389;28;20118;-78
2023/06/25 13:14:55;;;;;;;4.95;2.28;;;;;;;;;;5061795;28;20032;-77
2023/06/25 13:17:21;;;;;;;1.90;1.80;;;;;;;;;;5079442;28;20021;-78
2023/06/25 13:19:48;;;;;;;2.08;1.88;;;;;;;;;;5075731;28;20032;-78
2023/06/25 13:22:14;;;;;;;2.45;1.50;;;;;;;;;;5060440;28;20468;-79
2023/06/25 13:24:41;;;;;;;2.70;1.90;;;;;;;;;;5062771;28;20035;-78
2023/06/25 13:27:08;;;;;;;2.00;1.80;;;;;;;;;;5058511;28;20523;-79
2023/06/25 13:29:34;;;;;;;3.33;1.90;;;;;;;;;;5062315;28;20021;-79
2023/06/25 13:32:00;;;;;;;2.58;1.98;;;;;;;;;;5057391;28;20714;-78
2023/06/25 13:34:26;;;;;;;3.92;2.30;;;;;;;;;;5069270;28;20032;-78
2023/06/25 13:36:53;;;;;;;2.10;1.90;;;;;;;;;;5056100;28;20128;-79
2023/06/25 13:39:19;;;;;;;3.47;2.00;;;;;;;;;;5058605;28;20034;-79
2023/06/25 13:41:45;;;;;;;2.80;1.98;;;;;;;;;;5056725;28;20748;-79
2023/06/25 13:44:11;;;;;;;2.80;1.95;;;;;;;;;;5063116;28;20028;-80
2023/06/25 13:46:38;;;;;;;2.50;1.90;;;;;;;;;;5060402;28;20046;-80
2023/06/25 13:49:04;;;;;;;2.03;1.73;;;;;;;;;;5075991;28;20025;-80
2023/06/25 13:51:30;;;;;;;2.20;1.90;;;;;;;;;;5060286;28;20036;-80
2023/06/25 13:53:56;;;;;;;3.88;1.80;;;;;;;;;;5072575;28;20029;-80
2023/06/25 13:56:23;;;;;;;2.55;1.85;;;;;;;;;;5072312;28;20044;-79
2023/06/25 13:58:49;;;;;;;2.53;1.70;;;;;;;;;;5072882;28;20031;-80
2023/06/25 14:01:15;;;;;;;2.90;1.95;;;;;;;;;;5071590;28;20060;-79
2023/06/25 14:03:42;;;;;;;2.85;1.67;;;;;;;;;;5057211;28;20025;-80
2023/06/25 14:06:08;;;;;;;3.60;2.65;;;;;;;;;;5072368;28;20123;-79
2023/06/25 14:08:34;;;;;;;2.10;1.90;;;;;;;;;;5061602;28;20731;-78
2023/06/25 14:11:00;;;;;;;2.08;1.80;;;;;;;;;;5074074;28;20033;-80
2023/06/25 14:13:26;;;;;;;2.15;1.83;;;;;;;;;;5075089;28;20058;-80
2023/06/25 14:15:52;;;;;;;2.13;1.70;;;;;;;;;;5073501;28;20067;-80
2023/06/25 14:18:19;;;;;;;3.50;1.70;;;;;;;;;;5061415;28;20230;-79
2023/06/25 14:20:45;;;;;;;2.85;1.73;;;;;;;;;;5059650;28;20020;-78
2023/06/25 14:23:11;;;;;;;5.28;1.60;;;;;;;;;;5068372;28;20123;-79
2023/06/25 14:25:37;;;;;;;3.03;1.80;;;;;;;;;;5070876;28;20035;-81
2023/06/25 14:28:03;;;;;;;2.20;1.80;;;;;;;;;;5070703;28;20029;-80
2023/06/25 14:30:29;;;;;;;2.97;1.70;;;;;;;;;;5057767;28;20143;-80
2023/06/25 14:32:56;;;;;;;2.55;1.70;;;;;;;;;;5055977;28;20235;-80
2023/06/25 14:35:22;;;;;;;3.47;1.73;;;;;;;;;;5075833;28;20024;-79
2023/06/25 14:37:48;;;;;;;3.75;2.20;;;;;;;;;;5073436;28;20017;-80